Current Weather Conditions: station 46183

sailwx.info

Wind from 110 at 21 knots gusting 27

Wave height 2.5 meters (8 feet), 9 second period

Air temperature 6.9° C

Last reported at 2017-Jan-22 14:00 UTC.
Time now 2017-Jan-22 16:23 UTC

Location: N 53°36' W 131°06'.
View on Google Maps.

See reports from other nearby stations

  
Tides and Currents Weather Stations Pressure Air Temp Water Temp Dewpoint Dewpoint Depression Visibility Wind Speed Wind Dir Waves Ship Positions
date/time (UTC)wind fromknots sea level pressurealtimeterstation pressurevisibilityair tempwater tempwave heightnotes
2017-Jan-22 14:00 110 21 gusting 27 6.9 2.5
2017-Jan-22 13:00 110 25 gusting 31 6.8 2.3
2017-Jan-22 12:00 110 23 gusting 31 6.8 2.3
2017-Jan-22 11:00 110 27 gusting 34 6.6 2.2
2017-Jan-22 10:00 120 27 gusting 33 7.0 2.1
2017-Jan-22 09:00 120 25 gusting 33 7.7 1.6
2017-Jan-22 08:00 110 21 gusting 27 8.1 1.4
2017-Jan-22 07:00 090 17 gusting 21 7.8 1.5
2017-Jan-22 06:00 080 19 gusting 23 7.7 1.4
2017-Jan-22 05:00 7.5 1.3
2017-Jan-22 04:00 090 15 gusting 19 7.7 1.4
2017-Jan-22 03:00 110 19 gusting 25 6.8 1.5
2017-Jan-22 02:00 130 19 gusting 21 7.6 1.3
2017-Jan-22 01:00 120 17 gusting 21 7.9 1.0
2017-Jan-22 00:00 100 9 gusting 11 7.6 1.0
2017-Jan-21 23:00 090 7 gusting 7 7.1 0.8
2017-Jan-21 22:00 090 7 gusting 9 6.8 0.9
2017-Jan-21 21:00 090 7 gusting 9 6.5 0.8
2017-Jan-21 20:00 080 7 gusting 9 6.2 0.8
2017-Jan-21 19:00 080 7 gusting 9 6.2 0.7
2017-Jan-21 18:00 090 7 gusting 9 6.9 0.7
2017-Jan-21 17:00 080 5 gusting 7 5.9 0.6
2017-Jan-21 16:00 130 5 gusting 5 5.9 0.7
2017-Jan-21 15:00 090 5 gusting 7 5.6 0.7
2017-Jan-21 14:00 080 5 gusting 7 5.3 0.7
2017-Jan-21 13:00 100 5 gusting 7 5.4 0.7
2017-Jan-21 12:00 020 9 gusting 11 5.3 0.8
2017-Jan-21 11:00 5.3 0.9
2017-Jan-21 10:00 360 11 gusting 13 5.5 1.0
2017-Jan-21 09:00 350 13 gusting 15 5.4 1.0
2017-Jan-21 08:00 350 13 gusting 15 5.2 1.1
2017-Jan-21 07:00 360 13 gusting 15 5.1 1.1
2017-Jan-21 06:00 360 15 gusting 17 5.4 1.2
2017-Jan-21 05:00 5.6 1.2
2017-Jan-21 04:00 360 17 gusting 19 5.7 1.2
2017-Jan-21 03:00 360 17 gusting 23 5.7 1.2
2017-Jan-21 02:00 010 17 gusting 21 5.6 1.1
2017-Jan-21 01:00 010 15 gusting 19 5.6 1.2
2017-Jan-21 00:00 010 17 gusting 19 5.8 1.2
2017-Jan-20 23:00 5.8 1.0
2017-Jan-20 22:00 5.8 0.9
2017-Jan-20 21:00 350 13 gusting 17 5.7 0.9
2017-Jan-20 20:00 5.7 0.9
2017-Jan-20 19:00 010 9 gusting 11 5.3 0.9
2017-Jan-20 18:00 030 9 gusting 11 5.3 1.0
2017-Jan-20 17:00 040 11 gusting 13 5.2 1.0
2017-Jan-20 16:00 020 11 gusting 13 5.1 1.0